Main page
METAR-TAF:

METAR-TAF

Airports :

Hakkari–Yüksekova Airport

Yüksekova, Turkey

latitude: 37-33-06N, longitude: 44-14-01E, elevation: 1950 m

Current weather observation

The report was made 39 minutes ago, at 09:50 UTC
Wind 6 kt from variable directions
Temperature 16°C
Humidity 42%
Pressure 1023 hPa
Visibility 10 km or more
Few clouds at a height of 4000 ft

METAR: LTCW 160950Z VRB06KT 9999 FEW040 16/03 Q1023

Time: 13:29 (10:29 UTC)

Forecast

The report was made 2 hours and 49 minutes ago, at 07:40 UTC
Forecast valid from 16 at 09 UTC to 16 at 18 UTC
Wind 7 kt from the Southwest
Visibility 10 km or more
Few clouds at a height of 4000 ft

TAF: LTCW 160740Z 1609/1618 23007KT 9999 FEW040

Weather observations and forecasts of more than 4000 airports (METAR and TAF reports).

The available stations are represented by yellow and red dots on the map.

Hover mouse over dot to see the name of the station.

Then click to see weather observations and forecasts.

To change the map : click on the green buttons with a black cross to zoom in, on the green button with a dash to zoom out, or on the green arrows for adjacent maps.


METAR-TAF: